createdAt,value
2022-08-27T00:01:26.310Z,8.18
2022-08-27T00:03:55.549Z,8.73
2022-08-27T00:06:24.367Z,8.73
2022-08-27T00:08:53.302Z,8.70
2022-08-27T00:11:22.910Z,7.95
2022-08-27T00:13:50.966Z,9.00
2022-08-27T00:16:19.543Z,8.90
2022-08-27T00:18:48.570Z,9.38
2022-08-27T00:21:17.505Z,9.13
2022-08-27T00:23:45.549Z,8.80
2022-08-27T00:26:14.332Z,8.82
2022-08-27T00:28:43.104Z,8.55
2022-08-27T00:31:12.293Z,8.20
2022-08-27T00:33:41.278Z,8.85
2022-08-27T00:36:10.390Z,8.63
2022-08-27T00:38:39.035Z,9.10
2022-08-27T00:41:10.475Z,9.18
2022-08-27T00:43:58.412Z,9.05
2022-08-27T00:46:38.966Z,9.07
2022-08-27T00:49:15.244Z,8.13
2022-08-27T00:51:44.481Z,8.45
2022-08-27T00:54:16.114Z,8.55
2022-08-27T00:56:51.720Z,8.95
2022-08-27T00:59:23.754Z,9.02
2022-08-27T01:02:10.966Z,9.07
2022-08-27T01:04:41.469Z,8.52
2022-08-27T01:07:11.119Z,8.00
2022-08-27T01:09:39.598Z,9.35
2022-08-27T01:12:07.703Z,8.85
2022-08-27T01:14:35.717Z,8.63
2022-08-27T01:17:04.773Z,8.38
2022-08-27T01:19:45.787Z,8.02
2022-08-27T01:22:51.666Z,8.68
2022-08-27T01:25:21.463Z,8.27
2022-08-27T01:27:49.348Z,8.30
2022-08-27T01:30:20.038Z,8.18
2022-08-27T01:32:48.855Z,8.55
2022-08-27T01:35:18.052Z,8.57
2022-08-27T01:37:49.689Z,8.75
2022-08-27T01:40:20.497Z,8.07
2022-08-27T01:42:51.974Z,7.93
2022-08-27T01:45:24.962Z,8.00
2022-08-27T01:47:52.711Z,7.80
2022-08-27T01:50:26.319Z,7.80
2022-08-27T01:52:55.118Z,8.30
2022-08-27T01:55:26.205Z,8.55
2022-08-27T01:57:55.236Z,8.13
2022-08-27T02:00:26.689Z,8.65
2022-08-27T02:02:55.124Z,8.27
2022-08-27T02:05:23.093Z,8.75
2022-08-27T02:07:51.302Z,8.50
2022-08-27T02:10:23.884Z,8.00
2022-08-27T02:12:53.010Z,8.38
2022-08-27T02:15:21.461Z,8.40
2022-08-27T02:17:49.557Z,9.20
2022-08-27T02:20:18.349Z,8.68
2022-08-27T02:22:46.152Z,8.55
2022-08-27T02:25:15.596Z,8.13
2022-08-27T02:27:44.554Z,8.40
2022-08-27T02:30:15.759Z,9.02
2022-08-27T02:32:47.645Z,9.43
2022-08-27T02:35:17.790Z,9.07
2022-08-27T02:37:46.016Z,8.68
2022-08-27T02:40:17.756Z,8.80
2022-08-27T02:42:45.766Z,8.02
2022-08-27T02:45:15.373Z,9.13
2022-08-27T02:47:43.566Z,9.15
2022-08-27T02:50:12.452Z,9.70
2022-08-27T02:52:40.799Z,10.00
2022-08-27T02:55:08.686Z,8.63
2022-08-27T02:57:36.690Z,8.70
2022-08-27T03:00:18.083Z,9.40
2022-08-27T03:02:46.109Z,9.07
2022-08-27T03:05:15.203Z,9.88
2022-08-27T03:07:43.472Z,8.98
2022-08-27T03:10:14.258Z,9.13
2022-08-27T03:12:42.468Z,8.85
2022-08-27T03:15:12.723Z,9.25
2022-08-27T03:17:58.715Z,8.70
2022-08-27T03:20:27.741Z,9.43
2022-08-27T03:22:55.816Z,9.68
2022-08-27T03:25:23.532Z,9.27
2022-08-27T03:27:51.659Z,9.15
2022-08-27T03:30:22.030Z,9.32
2022-08-27T03:32:50.835Z,8.60
2022-08-27T03:35:19.907Z,10.02
2022-08-27T03:37:48.308Z,8.80
2022-08-27T03:40:16.963Z,9.27
2022-08-27T03:42:44.664Z,9.40
2022-08-27T03:45:12.404Z,9.90
2022-08-27T03:47:40.782Z,10.00
2022-08-27T03:50:09.664Z,11.30
2022-08-27T03:52:37.728Z,11.07
2022-08-27T03:55:07.933Z,11.10
2022-08-27T03:57:35.544Z,9.82
2022-08-27T04:00:03.541Z,9.68
2022-08-27T04:02:31.953Z,9.80
2022-08-27T04:04:59.497Z,10.05
2022-08-27T04:07:29.767Z,10.70
2022-08-27T04:09:57.535Z,11.77
2022-08-27T04:12:26.832Z,11.25
2022-08-27T04:14:54.682Z,11.50
2022-08-27T04:17:22.273Z,11.07
2022-08-27T04:19:52.700Z,10.15
2022-08-27T04:22:21.796Z,10.38
2022-08-27T04:24:49.882Z,9.90
2022-08-27T04:27:17.483Z,8.82
2022-08-27T04:29:48.040Z,9.43
2022-08-27T04:32:16.301Z,8.68
2022-08-27T04:34:43.775Z,8.63
2022-08-27T04:37:11.646Z,9.07
2022-08-27T04:39:42.678Z,9.32
2022-08-27T04:42:12.379Z,9.70
2022-08-27T04:44:39.880Z,8.73
2022-08-27T04:47:07.837Z,8.75
2022-08-27T04:49:36.764Z,8.43
2022-08-27T04:52:04.433Z,9.20
2022-08-27T04:54:33.369Z,8.73
2022-08-27T04:57:03.006Z,9.13
2022-08-27T04:59:32.633Z,9.48
2022-08-27T05:02:01.651Z,9.70
2022-08-27T05:04:34.761Z,10.05
2022-08-27T05:07:02.435Z,10.18
2022-08-27T05:09:30.443Z,10.10
2022-08-27T05:11:57.998Z,8.95
2022-08-27T05:14:30.204Z,11.02
2022-08-27T05:16:59.367Z,9.95
2022-08-27T05:19:26.951Z,10.10
2022-08-27T05:21:54.948Z,9.60
2022-08-27T05:24:23.201Z,9.25
2022-08-27T05:26:50.994Z,9.48
2022-08-27T05:29:19.127Z,9.55
2022-08-27T05:31:48.091Z,8.95
2022-08-27T05:34:19.221Z,9.55
2022-08-27T05:36:53.384Z,9.32
2022-08-27T05:39:21.026Z,8.45
2022-08-27T05:41:52.668Z,9.00
2022-08-27T05:47:08.334Z,8.80
2022-08-27T05:49:36.182Z,8.45
2022-08-27T05:52:04.056Z,8.68
2022-08-27T05:54:31.975Z,8.00
2022-08-27T05:56:59.783Z,8.57
2022-08-27T05:59:47.272Z,9.25
2022-08-27T06:02:14.833Z,8.85
2022-08-27T06:04:42.453Z,9.68
2022-08-27T06:07:11.185Z,9.55
2022-08-27T06:09:39.303Z,9.07
2022-08-27T06:12:08.418Z,8.77
2022-08-27T06:14:37.558Z,8.32
2022-08-27T06:17:06.528Z,9.02
2022-08-27T06:19:36.636Z,8.27
2022-08-27T06:22:09.899Z,8.20
2022-08-27T06:24:43.207Z,9.68
2022-08-27T06:27:14.995Z,8.38
2022-08-27T06:29:43.193Z,8.90
2022-08-27T06:32:12.223Z,7.30
2022-08-27T06:34:40.440Z,8.32
2022-08-27T06:37:08.615Z,7.45
2022-08-27T06:39:40.534Z,7.70
2022-08-27T06:42:12.862Z,8.38
2022-08-27T06:44:41.164Z,8.02
2022-08-27T06:47:08.672Z,7.78
2022-08-27T06:49:38.822Z,7.90
2022-08-27T06:52:06.881Z,7.72
2022-08-27T06:54:36.795Z,7.90
2022-08-27T06:57:04.424Z,6.88
2022-08-27T06:59:33.042Z,7.82
2022-08-27T07:02:00.647Z,7.20
2022-08-27T07:04:32.778Z,7.30
2022-08-27T07:07:03.359Z,7.45
2022-08-27T07:09:32.800Z,6.85
2022-08-27T07:12:01.287Z,7.65
2022-08-27T07:14:33.005Z,7.43
2022-08-27T07:17:05.092Z,7.15
2022-08-27T07:19:33.961Z,7.97
2022-08-27T07:22:05.304Z,7.20
2022-08-27T07:24:33.388Z,6.25
2022-08-27T07:27:00.955Z,6.75
2022-08-27T07:29:32.181Z,6.40
2022-08-27T07:32:00.154Z,6.63
2022-08-27T07:34:28.306Z,6.30
2022-08-27T07:36:55.957Z,6.82
2022-08-27T07:39:24.344Z,6.38
2022-08-27T07:42:14.630Z,6.47
2022-08-27T07:44:42.327Z,6.05
2022-08-27T07:47:10.945Z,6.35
2022-08-27T07:49:38.467Z,6.03
2022-08-27T07:52:06.081Z,5.95
2022-08-27T07:54:33.689Z,5.95
2022-08-27T07:57:01.569Z,5.88
2022-08-27T07:59:29.276Z,5.90
2022-08-27T08:01:57.172Z,6.10
2022-08-27T08:04:26.885Z,5.75
2022-08-27T08:06:56.231Z,6.35
2022-08-27T08:09:25.176Z,6.72
2022-08-27T08:11:54.216Z,6.47
2022-08-27T08:14:22.406Z,6.40
2022-08-27T08:16:50.510Z,6.65
2022-08-27T08:19:18.664Z,5.63
2022-08-27T08:21:46.558Z,6.57
2022-08-27T08:24:14.038Z,6.00
2022-08-27T08:26:42.299Z,6.07
2022-08-27T08:29:17.673Z,6.40
2022-08-27T08:31:50.119Z,6.30
2022-08-27T08:34:20.004Z,6.38
2022-08-27T08:36:54.071Z,6.00
2022-08-27T08:39:23.782Z,6.57
2022-08-27T08:41:57.101Z,6.00
2022-08-27T08:44:32.803Z,6.57
2022-08-27T08:47:12.264Z,6.22
2022-08-27T08:49:58.809Z,6.88
2022-08-27T08:52:35.793Z,6.30
2022-08-27T08:55:13.797Z,6.47
2022-08-27T08:58:05.790Z,6.03
2022-08-27T09:00:33.765Z,6.75
2022-08-27T09:03:01.729Z,5.85
2022-08-27T09:05:30.224Z,5.90
2022-08-27T09:08:31.002Z,6.25
2022-08-27T09:11:13.360Z,5.97
2022-08-27T09:13:53.647Z,6.25
2022-08-27T09:16:21.674Z,6.47
2022-08-27T09:18:52.514Z,6.90
2022-08-27T09:21:34.024Z,6.40
2022-08-27T09:24:07.866Z,6.22
2022-08-27T09:26:39.365Z,6.47
2022-08-27T09:29:16.601Z,6.30
2022-08-27T09:31:55.785Z,6.03
2022-08-27T09:34:25.044Z,6.18
2022-08-27T09:37:22.874Z,6.13
2022-08-27T09:40:13.266Z,6.25
2022-08-27T09:42:50.785Z,6.80
2022-08-27T09:45:25.112Z,6.47
2022-08-27T09:48:07.931Z,6.07
2022-08-27T09:50:43.501Z,6.50
2022-08-27T09:53:48.168Z,7.18
2022-08-27T09:56:47.317Z,6.60
2022-08-27T09:59:28.412Z,6.90
2022-08-27T10:02:16.845Z,6.60
2022-08-27T10:04:51.904Z,6.90
2022-08-27T10:07:26.482Z,7.28
2022-08-27T10:10:16.433Z,6.95
2022-08-27T10:13:10.301Z,6.63
2022-08-27T10:15:49.578Z,6.20
2022-08-27T10:18:18.262Z,5.90
2022-08-27T10:21:05.418Z,6.25
2022-08-27T10:24:03.201Z,6.32
2022-08-27T10:27:02.996Z,6.25
2022-08-27T10:29:46.970Z,5.85
2022-08-27T10:32:35.697Z,6.20
2022-08-27T10:35:18.245Z,5.95
2022-08-27T10:38:05.373Z,6.07
2022-08-27T10:40:38.976Z,5.95
2022-08-27T10:43:06.534Z,5.97
2022-08-27T10:45:43.175Z,6.00
2022-08-27T10:48:16.650Z,5.80
2022-08-27T10:50:59.371Z,6.43
2022-08-27T10:53:45.781Z,6.70
2022-08-27T10:56:43.108Z,5.95
2022-08-27T10:59:28.700Z,6.03
2022-08-27T11:02:21.255Z,5.97
2022-08-27T11:04:58.201Z,6.07
2022-08-27T11:07:40.279Z,5.85
2022-08-27T11:10:20.877Z,6.25
2022-08-27T11:12:52.229Z,7.20
2022-08-27T11:15:28.213Z,6.35
2022-08-27T11:18:17.054Z,6.35
2022-08-27T11:21:07.445Z,6.57
2022-08-27T11:23:46.687Z,7.10
2022-08-27T11:26:14.791Z,7.03
2022-08-27T11:28:48.131Z,7.20
2022-08-27T11:31:40.791Z,7.03
2022-08-27T11:34:11.185Z,6.35
2022-08-27T11:36:45.832Z,6.70
2022-08-27T11:39:39.709Z,6.43
2022-08-27T11:42:10.428Z,6.63
2022-08-27T11:44:46.908Z,5.40
2022-08-27T11:47:26.298Z,6.63
2022-08-27T11:49:58.483Z,6.15
2022-08-27T11:52:38.247Z,6.60
2022-08-27T11:55:20.814Z,6.13
2022-08-27T11:58:02.207Z,6.20
2022-08-27T12:00:36.497Z,6.43
2022-08-27T12:03:12.160Z,6.10
2022-08-27T12:05:44.641Z,6.38
2022-08-27T12:08:30.433Z,6.10
2022-08-27T12:11:22.511Z,6.15
2022-08-27T12:14:14.131Z,5.40
2022-08-27T12:16:57.277Z,5.22
2022-08-27T12:20:06.384Z,5.90
2022-08-27T12:23:04.924Z,5.78
2022-08-27T12:25:33.259Z,6.03
2022-08-27T12:28:09.582Z,6.03
2022-08-27T12:30:50.297Z,5.35
2022-08-27T12:33:41.304Z,5.82
2022-08-27T12:36:27.558Z,6.60
2022-08-27T12:39:00.250Z,6.20
2022-08-27T12:41:44.044Z,5.60
2022-08-27T12:44:27.438Z,6.18
2022-08-27T12:47:08.955Z,5.70
2022-08-27T12:49:42.544Z,5.97
2022-08-27T12:52:26.188Z,5.97
2022-08-27T12:55:27.634Z,5.85
2022-08-27T12:58:15.666Z,6.18
2022-08-27T13:01:11.803Z,6.38
2022-08-27T13:03:43.827Z,6.38
2022-08-27T13:06:35.543Z,6.53
2022-08-27T13:09:05.981Z,5.78
2022-08-27T13:11:44.528Z,5.53
2022-08-27T13:14:15.591Z,6.20
2022-08-27T13:16:51.740Z,6.18
2022-08-27T13:19:28.611Z,5.85
2022-08-27T13:21:56.768Z,5.45
2022-08-27T13:24:47.050Z,5.93
2022-08-27T13:27:15.118Z,6.25
2022-08-27T13:29:44.118Z,6.90
2022-08-27T13:32:14.791Z,7.70
2022-08-27T13:34:42.677Z,6.97
2022-08-27T13:37:27.220Z,7.22
2022-08-27T13:39:57.684Z,7.38
2022-08-27T13:42:26.592Z,6.97
2022-08-27T13:45:02.027Z,7.40
2022-08-27T13:47:30.915Z,6.97
2022-08-27T13:50:08.835Z,7.25
2022-08-27T13:52:58.901Z,7.45
2022-08-27T13:55:27.824Z,7.40
2022-08-27T13:57:55.710Z,7.43
2022-08-27T14:00:28.508Z,8.07
2022-08-27T14:02:56.894Z,8.07
2022-08-27T14:05:24.337Z,7.38
2022-08-27T14:07:59.056Z,6.72
2022-08-27T14:10:44.367Z,6.82
2022-08-27T14:13:22.675Z,7.45
2022-08-27T14:15:54.846Z,7.47
2022-08-27T14:18:57.751Z,7.53
2022-08-27T14:21:24.660Z,7.55
2022-08-27T14:23:53.160Z,7.20
2022-08-27T14:26:21.050Z,7.90
2022-08-27T14:28:48.986Z,7.32
2022-08-27T14:31:16.854Z,7.47
2022-08-27T14:33:48.075Z,7.32
2022-08-27T14:36:18.754Z,7.63
2022-08-27T14:38:49.224Z,7.85
2022-08-27T14:41:18.748Z,7.70
2022-08-27T14:43:49.894Z,7.43
2022-08-27T14:46:31.114Z,7.60
2022-08-27T14:49:00.866Z,7.57
2022-08-27T14:51:32.713Z,7.60
2022-08-27T14:54:00.477Z,7.25
2022-08-27T14:56:28.065Z,7.47
2022-08-27T14:58:55.594Z,6.93
2022-08-27T15:01:25.392Z,6.93
2022-08-27T15:03:54.668Z,7.88
2022-08-27T15:06:23.839Z,7.47
2022-08-27T15:08:52.394Z,6.78
2022-08-27T15:11:24.141Z,7.22
2022-08-27T15:13:53.280Z,7.45
2022-08-27T15:16:47.325Z,7.22
2022-08-27T15:19:15.716Z,7.03
2022-08-27T15:21:47.928Z,6.88
2022-08-27T15:24:27.388Z,7.00
2022-08-27T15:26:59.824Z,7.25
2022-08-27T15:29:27.888Z,7.20
2022-08-27T15:31:55.655Z,7.40
2022-08-27T15:34:23.502Z,7.22
2022-08-27T15:36:51.085Z,7.18
2022-08-27T15:39:18.776Z,7.55
2022-08-27T15:42:05.202Z,7.43
2022-08-27T15:44:34.371Z,6.47
2022-08-27T15:47:02.109Z,6.50
2022-08-27T15:49:29.703Z,7.43
2022-08-27T15:51:59.648Z,6.75
2022-08-27T15:54:28.103Z,7.65
2022-08-27T15:56:55.741Z,7.88
2022-08-27T15:59:23.324Z,8.52
2022-08-27T16:01:55.073Z,7.82
2022-08-27T16:04:23.570Z,8.75
2022-08-27T16:06:51.173Z,8.68
2022-08-27T16:09:19.250Z,8.25
2022-08-27T16:11:46.904Z,8.13
2022-08-27T16:14:15.950Z,8.93
2022-08-27T16:16:47.688Z,7.93
2022-08-27T16:19:16.699Z,8.25
2022-08-27T16:21:44.496Z,8.98
2022-08-27T16:24:12.070Z,8.93
2022-08-27T16:26:39.857Z,9.13
2022-08-27T16:29:07.580Z,9.57
2022-08-27T16:31:35.308Z,9.02
2022-08-27T16:34:05.362Z,8.98
2022-08-27T16:36:37.125Z,9.02
2022-08-27T16:39:04.806Z,8.10
2022-08-27T16:41:32.492Z,8.38
2022-08-27T16:44:00.807Z,8.80
2022-08-27T16:46:28.321Z,9.02
2022-08-27T16:49:15.060Z,9.02
2022-08-27T16:51:43.692Z,9.20
2022-08-27T16:54:13.075Z,8.77
2022-08-27T16:56:40.573Z,9.15
2022-08-27T16:59:08.519Z,9.77
2022-08-27T17:01:36.679Z,9.88
2022-08-27T17:04:16.140Z,9.70
2022-08-27T17:06:45.977Z,10.18
2022-08-27T17:09:14.210Z,9.73
2022-08-27T17:11:43.043Z,9.80
2022-08-27T17:14:12.287Z,9.95
2022-08-27T17:16:41.835Z,10.00
2022-08-27T17:19:13.280Z,9.75
2022-08-27T17:21:45.770Z,10.15
2022-08-27T17:24:13.992Z,10.35
2022-08-27T17:26:41.600Z,10.15
2022-08-27T17:29:09.328Z,10.82
2022-08-27T17:31:39.172Z,10.73
2022-08-27T17:34:12.375Z,10.55
2022-08-27T17:36:39.964Z,10.40
2022-08-27T17:39:13.513Z,10.32
2022-08-27T17:41:44.014Z,10.70
2022-08-27T17:44:24.686Z,10.55
2022-08-27T17:46:54.145Z,10.27
2022-08-27T17:49:22.361Z,10.85
2022-08-27T17:51:55.767Z,11.18
2022-08-27T17:54:37.636Z,10.73
2022-08-27T17:57:17.663Z,11.27
2022-08-27T17:59:45.775Z,11.30
2022-08-27T18:02:21.435Z,11.55
2022-08-27T18:04:49.281Z,12.10
2022-08-27T18:07:17.291Z,11.98
2022-08-27T18:09:45.491Z,11.52
2022-08-27T18:12:18.087Z,11.75
2022-08-27T18:14:48.994Z,11.65
2022-08-27T18:17:16.909Z,11.63
2022-08-27T18:19:45.833Z,11.70
2022-08-27T18:22:15.289Z,12.60
2022-08-27T18:24:42.835Z,12.38
2022-08-27T18:27:10.511Z,12.48
2022-08-27T18:29:38.260Z,11.80
2022-08-27T18:32:05.940Z,12.20
2022-08-27T18:34:33.605Z,12.57
2022-08-27T18:37:01.157Z,12.35
2022-08-27T18:39:29.786Z,12.10
2022-08-27T18:42:00.589Z,11.15
2022-08-27T18:44:36.472Z,12.65
2022-08-27T18:47:04.879Z,12.88
2022-08-27T18:49:32.513Z,12.70
2022-08-27T18:52:01.029Z,12.80
2022-08-27T18:54:28.667Z,13.18
2022-08-27T18:56:56.333Z,13.18
2022-08-27T18:59:27.477Z,12.85
2022-08-27T19:01:56.386Z,12.48
2022-08-27T19:04:24.662Z,13.07
2022-08-27T19:06:52.118Z,14.32
2022-08-27T19:09:21.244Z,14.50
2022-08-27T19:11:48.721Z,13.90
2022-08-27T19:14:16.196Z,14.65
2022-08-27T19:16:47.205Z,13.35
2022-08-27T19:19:17.416Z,13.85
2022-08-27T19:21:49.286Z,13.73
2022-08-27T19:24:21.476Z,13.68
2022-08-27T19:26:50.526Z,13.90
2022-08-27T19:29:19.879Z,13.95
2022-08-27T19:31:48.154Z,14.60
2022-08-27T19:34:16.102Z,14.70
2022-08-27T19:36:44.341Z,16.38
2022-08-27T19:39:13.824Z,16.45
2022-08-27T19:41:41.950Z,18.27
2022-08-27T19:44:09.766Z,16.88
2022-08-27T19:46:38.335Z,15.77
2022-08-27T19:49:06.185Z,16.80
2022-08-27T19:51:33.735Z,16.60
2022-08-27T19:54:01.487Z,16.20
2022-08-27T19:56:29.499Z,17.90
2022-08-27T19:59:01.243Z,17.02
2022-08-27T20:01:33.654Z,16.95
2022-08-27T20:04:01.397Z,17.70
2022-08-27T20:06:29.843Z,17.90
2022-08-27T20:08:58.648Z,18.08
2022-08-27T20:11:26.386Z,19.58
2022-08-27T20:13:58.772Z,17.20
2022-08-27T20:16:26.972Z,18.55
2022-08-27T20:18:58.345Z,20.67
2022-08-27T20:21:27.728Z,16.88
2022-08-27T20:23:55.406Z,17.08
2022-08-27T20:26:24.819Z,16.50
2022-08-27T20:28:53.389Z,17.38
2022-08-27T20:31:21.030Z,18.77
2022-08-27T20:33:49.099Z,19.63
2022-08-27T20:36:16.804Z,19.20
2022-08-27T20:38:44.308Z,19.52
2022-08-27T20:41:11.987Z,19.15
2022-08-27T20:43:39.569Z,18.75
2022-08-27T20:46:07.178Z,19.83
2022-08-27T20:48:38.619Z,21.67
2022-08-27T20:51:06.547Z,21.52
2022-08-27T20:53:34.015Z,20.10
2022-08-27T20:56:01.570Z,19.48
2022-08-27T20:58:47.853Z,20.27
2022-08-27T21:01:15.670Z,19.20
2022-08-27T21:03:43.199Z,18.70
2022-08-27T21:06:10.744Z,19.05
2022-08-27T21:08:39.435Z,20.75
2022-08-27T21:11:12.883Z,21.90
2022-08-27T21:13:55.369Z,23.02
2022-08-27T21:16:24.518Z,22.42
2022-08-27T21:18:53.964Z,20.90
2022-08-27T21:21:22.326Z,22.17
2022-08-27T21:23:49.798Z,22.92
2022-08-27T21:26:17.396Z,20.40
2022-08-27T21:28:44.826Z,21.80
2022-08-27T21:31:12.369Z,22.80
2022-08-27T21:33:40.241Z,22.05
2022-08-27T21:36:11.748Z,22.55
2022-08-27T21:38:40.022Z,20.73
2022-08-27T21:41:08.129Z,21.33
2022-08-27T21:43:36.152Z,19.27
2022-08-27T21:46:04.899Z,18.67
2022-08-27T21:48:32.692Z,17.92
2022-08-27T21:51:10.433Z,17.02
2022-08-27T21:53:38.233Z,18.58
2022-08-27T21:56:05.930Z,19.17
2022-08-27T21:58:34.361Z,19.50
2022-08-27T22:01:04.993Z,19.52
2022-08-27T22:03:34.867Z,20.30
2022-08-27T22:06:04.059Z,20.60
2022-08-27T22:08:31.793Z,20.25
2022-08-27T22:10:59.407Z,19.58
2022-08-27T22:13:27.312Z,19.30
2022-08-27T22:15:55.251Z,19.63
2022-08-27T22:18:23.139Z,19.95
2022-08-27T22:20:52.258Z,22.02
2022-08-27T22:23:20.540Z,21.83
2022-08-27T22:25:49.084Z,20.75
2022-08-27T22:28:17.400Z,20.52
2022-08-27T22:30:46.276Z,22.42
2022-08-27T22:33:14.253Z,24.17
2022-08-27T22:35:41.728Z,22.00
2022-08-27T22:38:09.302Z,25.45
2022-08-27T22:40:37.815Z,24.27
2022-08-27T22:43:05.959Z,22.75
2022-08-27T22:45:34.769Z,23.80
2022-08-27T22:48:02.512Z,24.52
2022-08-27T22:50:30.083Z,24.17
2022-08-27T22:52:57.874Z,23.65
2022-08-27T22:55:25.548Z,18.70
2022-08-27T22:57:55.013Z,20.67
2022-08-27T23:00:31.460Z,20.27
2022-08-27T23:03:00.089Z,20.45
2022-08-27T23:05:27.934Z,20.02
2022-08-27T23:08:00.171Z,21.55
2022-08-27T23:10:27.965Z,20.77
2022-08-27T23:12:56.548Z,19.73
2022-08-27T23:15:27.140Z,22.27
2022-08-27T23:17:55.682Z,22.38
2022-08-27T23:20:24.522Z,21.40
2022-08-27T23:22:52.870Z,22.40
2022-08-27T23:25:43.218Z,21.38
2022-08-27T23:28:14.965Z,23.20
2022-08-27T23:30:44.544Z,20.25
2022-08-27T23:33:13.495Z,19.92
2022-08-27T23:35:44.595Z,17.85
2022-08-27T23:38:12.364Z,18.88
2022-08-27T23:40:40.371Z,21.52
2022-08-27T23:43:08.050Z,22.17
2022-08-27T23:45:40.169Z,24.75
2022-08-27T23:48:08.919Z,21.13
2022-08-27T23:50:36.964Z,20.75
2022-08-27T23:53:05.832Z,19.42
2022-08-27T23:55:34.017Z,18.85
2022-08-27T23:58:03.038Z,20.20
